エドモントン の空港の天気 - METARとTAF

エドモントン国際空港 ( CYEG / YEG ) - カナダ アルバータ州Edmonton Capital Region
飛行場実況気象(Metar)
観測時間12/09 22:00 MST (12/10 05:00 UTC)
風向・風速南東 4m/s
視程10km以上
天気現象
全天の4割程度の雲 雲底高度 6400m
全天の8割程度の雲 雲底高度 7320m
気温-8℃
湿度79%
気圧1014.8hPa
METARCYEG 100500Z 13007KT 20SM SCT210 BKN240 M08/M11 A2981 RMK CI3CI4 SLP148
過去の天気等 Google飛行場航空写真 Wunderground天気予報

過去48時間のMETAR

飛行場予報(TAF)
発表時間: 12/09 19:38 MST (12/10 02:38 UTC)
予報対象時間: 9日20時 MST ~ 10日17時 MST
風向・風速南東 4m/s
視程10km以上
少しの雲 雲底高度 4270m
全天の8割程度の雲 雲底高度 6710m
10日5時 MST から
風向・風速西 3m/s
視程10km以上
全天の8割程度の雲 雲底高度 2440m
全天の8割程度の雲 雲底高度 3660m
10日9時 MST から
風向・風速西 4m/s
視程10km以上
全天の4割程度の雲 雲底高度 1220m
全天の8割程度の雲 雲底高度 2440m
10日9時 MST ~ 10日14時 MST に一時的に
視程3220m
天気現象弱いしゅう雪
全天の8割程度の雲 雲底高度 1220m
全天を覆う雲 雲底高度 2440m
10日9時 MST から 確率 30% で
視程6440m
天気現象弱い氷雨 もや
10日14時 MST から
風向・風速西 4m/s
視程10km以上
全天の8割程度の雲 雲底高度 2440m
全天の8割程度の雲 雲底高度 4270m
TAF CYEG 100238Z 1003/1024 14007KT P6SM FEW140 BKN220
FM101200 28006KT P6SM BKN080 BKN120
FM101600 28008KT P6SM SCT040 BKN080
TEMPO 1016/1021 2SM -SHSN BKN040 OVC080
PROB30 1016/1021 4SM -FZRA BR
FM102100 26008KT P6SM BKN080 BKN140 RMK NXT FCST BY 100600Z